»·PEaware :: N3021C KCRQ-KSNA

N3021C :: KCRQ-KSNA

FLIGHT INFORMATION

Flight Status: Arrived
Operator: Privately registered:
United States
More flights under this callsign
Pilot: Mark B. (9455)
Aircraft: CESSNA 172 SKYHAWK
(C172)
More flights by this aircraft type
Origin: KCRQ McClellan-Palomar
United States
Destination: KSNA John Wayne-Orange Co
United States
More flights between these airports :: More routes between these airports
Route: OCN V23 SLI
File this flight plan on PilotEdge
Remarks:
Altitude:
(Current/Filed)
6,000ft
Speed:
(Current/Filed)
115kts
Departed: 04-Jan-18 11:49 AM
Arrived: 04-Jan-18 12:33 PM
Distance/Time
Traveled:
44nm/0:44
Distance/Time
To Go:
Arrived

Flight Plot

Page will automatically refresh every two minutes.


Map Options




Map Legend


Flown Route
Filed Route
Departure Airport
Arrival Airport
Navaid (VOR, NDB)
Fix

Horizontal Profiles

Position Reports

Time Latitude Longitude Heading Altitude Ground
Speed
04-Jan-18 11:42 33.127553 -117.274797 258 335ft 0kts
04-Jan-18 11:43 33.127553 -117.274797 258 335ft 0kts
04-Jan-18 11:44 33.127553 -117.274797 258 335ft 0kts
04-Jan-18 11:45 33.127553 -117.274797 258 335ft 0kts
04-Jan-18 11:46 33.127553 -117.274797 258 335ft 0kts
04-Jan-18 11:47 33.127553 -117.274797 258 335ft 0kts
04-Jan-18 11:48 33.127553 -117.274797 258 335ft 0kts
04-Jan-18 11:49 33.128314 -117.274639 76 335ft 7kts
04-Jan-18 11:50 33.128565 -117.272791 32 335ft 0kts
04-Jan-18 11:51 33.128565 -117.272791 32 335ft 0kts
04-Jan-18 11:52 33.128565 -117.272791 32 335ft 0kts
04-Jan-18 11:53 33.128565 -117.272791 32 335ft 0kts
04-Jan-18 11:54 33.128565 -117.272791 32 335ft 0kts
04-Jan-18 11:55 33.127360 -117.285052 256 551ft 89kts
04-Jan-18 11:56 33.123473 -117.313303 260 1681ft 87kts
04-Jan-18 11:57 33.119426 -117.342049 261 2712ft 89kts
04-Jan-18 11:58 33.117229 -117.371240 286 3678ft 91kts
04-Jan-18 11:59 33.139787 -117.383622 342 4582ft 91kts
04-Jan-18 12:00 33.164457 -117.392253 336 5443ft 92kts
04-Jan-18 12:01 33.190107 -117.401780 344 6021ft 107kts
04-Jan-18 12:02 33.221332 -117.410115 354 5981ft 118kts
04-Jan-18 12:03 33.250063 -117.426100 315 6007ft 115kts
04-Jan-18 12:04 33.273353 -117.453123 313 5979ft 118kts
04-Jan-18 12:05 33.295398 -117.481966 319 5992ft 116kts
04-Jan-18 12:06 33.319452 -117.507756 312 6031ft 117kts
04-Jan-18 12:07 33.342025 -117.536158 315 6016ft 117kts
04-Jan-18 12:08 33.365478 -117.563537 320 6018ft 116kts
04-Jan-18 12:09 33.388974 -117.590746 311 6003ft 116kts
04-Jan-18 12:10 33.411498 -117.618598 320 6012ft 117kts
04-Jan-18 12:11 33.436802 -117.644928 314 5874ft 120kts
04-Jan-18 12:12 33.460178 -117.672682 318 5890ft 115kts
04-Jan-18 12:13 33.482919 -117.700405 314 5907ft 116kts
04-Jan-18 12:14 33.505388 -117.728458 316 5917ft 117kts
04-Jan-18 12:15 33.531441 -117.751277 332 5937ft 117kts
04-Jan-18 12:16 33.560571 -117.768245 334 5915ft 117kts
04-Jan-18 12:17 33.589798 -117.785523 334 5916ft 117kts
04-Jan-18 12:18 33.618601 -117.803911 331 5888ft 119kts
04-Jan-18 12:19 33.646695 -117.822943 330 5897ft 119kts
04-Jan-18 12:20 33.674732 -117.841240 332 5938ft 114kts
04-Jan-18 12:21 33.705431 -117.848602 11 5486ft 131kts
04-Jan-18 12:22 33.737337 -117.840262 12 4896ft 134kts
04-Jan-18 12:23 33.768032 -117.833400 10 4266ft 134kts
04-Jan-18 12:24 33.800723 -117.825348 9 3938ft 120kts
04-Jan-18 12:25 33.831814 -117.818990 9 3911ft 118kts
04-Jan-18 12:26 33.862097 -117.807391 33 3928ft 115kts
04-Jan-18 12:27 33.889337 -117.787738 30 3927ft 117kts
04-Jan-18 12:28 33.900604 -117.755306 91 3956ft 117kts
04-Jan-18 12:29 33.900238 -117.715937 90 3916ft 118kts
04-Jan-18 12:30 33.881011 -117.697048 213 3916ft 117kts
04-Jan-18 12:31 33.863279 -117.730058 236 3738ft 124kts
04-Jan-18 12:32 33.842721 -117.761773 215 3374ft 119kts
04-Jan-18 12:33 33.813386 -117.781391 210 2906ft 121kts
04-Jan-18 12:34 33.783293 -117.800701 207 2318ft 128kts
04-Jan-18 12:35 33.752166 -117.820163 210 1575ft 131kts
04-Jan-18 12:36 33.722117 -117.839634 205 1102ft 120kts
04-Jan-18 12:37 33.695680 -117.855881 208 449ft 90kts
04-Jan-18 12:38 33.679360 -117.866504 208 63ft 48kts
04-Jan-18 12:39 33.674447 -117.868510 149 60ft 0kts
04-Jan-18 12:40 33.674192 -117.868222 124 60ft 11kts
04-Jan-18 12:41 33.673016 -117.866899 207 60ft 0kts

Navigation Log

Ident Type
Flight plan parsing failed, navigation log unavailable